Acme, Washington
Current Conditions -  °F | °C
As of 3:53 AM on Monday 20 Oct 2014 (Local Time) from KBLI Reporting Station
Light Rain Light Rain  
Wind Chill: 62°   Ceiling: 3400
Heat Index: 62°   Visibility: 10mi
Dew Point: 54°   Wind: 10mph
Humidity: 75%   Direction: 150°SSE
Pressure: 29.65"   Gusts: 18mph
Location:  48.72°N, 122.21°W
Report Text: KBLI 201053Z AUTO 15009G16KT 10SM -RA BKN034 OVC043 17/12 A2965 RMK AO2 RAE08B24E35B52 SLP046 P0000 T01670122
Loading
Personal Weather Stations






























Interactive Weather Map New forecast layout! Learn more

10-Day Weather Forecast

Advertisements
Track Severe Weather on mobile